sensor_id;sensor_type;location;lat;lon;timestamp;P1;durP1;ratioP1;P2;durP2;ratioP2
42192;SDS011;52467;40.114;18.306;2022-11-22T00:00:41;11.32;;;5.63;;
42192;SDS011;52467;40.114;18.306;2022-11-22T00:03:09;13.25;;;5.82;;
42192;SDS011;52467;40.114;18.306;2022-11-22T00:05:36;11.77;;;5.13;;
42192;SDS011;52467;40.114;18.306;2022-11-22T00:08:03;8.85;;;4.80;;
42192;SDS011;52467;40.114;18.306;2022-11-22T00:10:31;10.48;;;5.20;;
42192;SDS011;52467;40.114;18.306;2022-11-22T00:13:01;9.43;;;5.10;;
42192;SDS011;52467;40.114;18.306;2022-11-22T00:15:30;10.75;;;4.85;;
42192;SDS011;52467;40.114;18.306;2022-11-22T00:17:58;8.73;;;4.67;;
42192;SDS011;52467;40.114;18.306;2022-11-22T00:20:25;10.70;;;4.50;;
42192;SDS011;52467;40.114;18.306;2022-11-22T00:22:52;7.32;;;4.07;;
42192;SDS011;52467;40.114;18.306;2022-11-22T00:25:22;7.10;;;2.90;;
42192;SDS011;52467;40.114;18.306;2022-11-22T00:27:50;7.22;;;3.05;;
42192;SDS011;52467;40.114;18.306;2022-11-22T00:30:17;5.35;;;2.70;;
42192;SDS011;52467;40.114;18.306;2022-11-22T00:32:44;7.13;;;2.70;;
42192;SDS011;52467;40.114;18.306;2022-11-22T00:35:12;5.28;;;2.72;;
42192;SDS011;52467;40.114;18.306;2022-11-22T00:37:39;5.45;;;2.60;;
42192;SDS011;52467;40.114;18.306;2022-11-22T00:40:06;5.22;;;2.70;;
42192;SDS011;52467;40.114;18.306;2022-11-22T00:42:35;4.00;;;2.20;;
42192;SDS011;52467;40.114;18.306;2022-11-22T00:45:02;6.38;;;2.58;;
42192;SDS011;52467;40.114;18.306;2022-11-22T00:47:30;5.80;;;2.53;;
42192;SDS011;52467;40.114;18.306;2022-11-22T00:49:57;4.65;;;2.47;;
42192;SDS011;52467;40.114;18.306;2022-11-22T00:52:24;5.47;;;1.92;;
42192;SDS011;52467;40.114;18.306;2022-11-22T00:54:52;5.03;;;1.83;;
42192;SDS011;52467;40.114;18.306;2022-11-22T00:57:20;3.78;;;1.73;;
42192;SDS011;52467;40.114;18.306;2022-11-22T00:59:48;7.93;;;1.90;;
42192;SDS011;52467;40.114;18.306;2022-11-22T01:02:15;3.42;;;1.85;;
42192;SDS011;52467;40.114;18.306;2022-11-22T01:04:43;4.17;;;1.97;;
42192;SDS011;52467;40.114;18.306;2022-11-22T01:07:10;5.45;;;1.55;;
42192;SDS011;52467;40.114;18.306;2022-11-22T01:09:37;5.22;;;1.70;;
42192;SDS011;52467;40.114;18.306;2022-11-22T01:12:04;3.30;;;1.67;;
42192;SDS011;52467;40.114;18.306;2022-11-22T01:14:32;4.28;;;1.40;;
42192;SDS011;52467;40.114;18.306;2022-11-22T01:17:00;5.22;;;1.30;;
42192;SDS011;52467;40.114;18.306;2022-11-22T01:19:27;3.43;;;1.57;;
42192;SDS011;52467;40.114;18.306;2022-11-22T01:21:54;9.07;;;1.63;;
42192;SDS011;52467;40.114;18.306;2022-11-22T01:24:21;4.55;;;1.60;;
42192;SDS011;52467;40.114;18.306;2022-11-22T01:26:49;6.13;;;1.30;;
42192;SDS011;52467;40.114;18.306;2022-11-22T01:29:16;3.97;;;0.97;;
42192;SDS011;52467;40.114;18.306;2022-11-22T01:31:43;4.72;;;1.20;;
42192;SDS011;52467;40.114;18.306;2022-11-22T01:34:11;6.70;;;0.98;;
42192;SDS011;52467;40.114;18.306;2022-11-22T01:36:38;7.07;;;0.90;;
42192;SDS011;52467;40.114;18.306;2022-11-22T01:39:06;5.47;;;0.85;;
42192;SDS011;52467;40.114;18.306;2022-11-22T01:41:33;4.40;;;0.93;;
42192;SDS011;52467;40.114;18.306;2022-11-22T01:44:16;1.50;;;0.75;;
42192;SDS011;52467;40.114;18.306;2022-11-22T01:46:44;3.33;;;0.80;;
42192;SDS011;52467;40.114;18.306;2022-11-22T01:49:26;2.47;;;0.98;;
42192;SDS011;52467;40.114;18.306;2022-11-22T01:52:02;3.53;;;1.25;;
42192;SDS011;52467;40.114;18.306;2022-11-22T01:54:34;5.10;;;1.20;;
42192;SDS011;52467;40.114;18.306;2022-11-22T01:57:05;2.33;;;0.98;;
42192;SDS011;52467;40.114;18.306;2022-11-22T01:59:41;3.47;;;0.80;;
42192;SDS011;52467;40.114;18.306;2022-11-22T02:02:13;3.33;;;1.33;;
42192;SDS011;52467;40.114;18.306;2022-11-22T02:04:40;1.98;;;0.80;;
42192;SDS011;52467;40.114;18.306;2022-11-22T02:09:45;6.78;;;1.00;;
42192;SDS011;52467;40.114;18.306;2022-11-22T02:12:14;3.90;;;0.80;;
42192;SDS011;52467;40.114;18.306;2022-11-22T02:14:42;4.75;;;1.05;;
42192;SDS011;52467;40.114;18.306;2022-11-22T02:17:10;3.40;;;0.88;;
42192;SDS011;52467;40.114;18.306;2022-11-22T02:19:39;4.13;;;0.80;;
42192;SDS011;52467;40.114;18.306;2022-11-22T02:22:11;4.28;;;0.98;;
42192;SDS011;52467;40.114;18.306;2022-11-22T02:27:52;3.25;;;0.90;;
42192;SDS011;52467;40.114;18.306;2022-11-22T02:30:25;4.35;;;1.08;;
42192;SDS011;52467;40.114;18.306;2022-11-22T02:32:53;10.60;;;1.42;;
42192;SDS011;52467;40.114;18.306;2022-11-22T02:35:21;6.07;;;1.40;;
42192;SDS011;52467;40.114;18.306;2022-11-22T02:37:58;7.72;;;1.00;;
42192;SDS011;52467;40.114;18.306;2022-11-22T02:40:44;8.00;;;1.23;;
42192;SDS011;52467;40.114;18.306;2022-11-22T02:43:16;4.72;;;1.27;;
42192;SDS011;52467;40.114;18.306;2022-11-22T02:45:45;5.72;;;0.93;;
42192;SDS011;52467;40.114;18.306;2022-11-22T02:48:13;5.00;;;1.10;;
42192;SDS011;52467;40.114;18.306;2022-11-22T02:50:42;7.55;;;0.90;;
42192;SDS011;52467;40.114;18.306;2022-11-22T02:53:09;7.45;;;1.20;;
42192;SDS011;52467;40.114;18.306;2022-11-22T02:55:37;5.43;;;1.30;;
42192;SDS011;52467;40.114;18.306;2022-11-22T02:58:05;11.23;;;1.40;;
42192;SDS011;52467;40.114;18.306;2022-11-22T03:00:33;8.95;;;1.13;;
42192;SDS011;52467;40.114;18.306;2022-11-22T03:03:01;8.80;;;1.20;;
42192;SDS011;52467;40.114;18.306;2022-11-22T03:05:28;6.10;;;1.07;;
42192;SDS011;52467;40.114;18.306;2022-11-22T03:07:56;7.07;;;1.52;;
42192;SDS011;52467;40.114;18.306;2022-11-22T03:10:23;4.22;;;1.00;;
42192;SDS011;52467;40.114;18.306;2022-11-22T03:12:51;7.07;;;1.27;;
42192;SDS011;52467;40.114;18.306;2022-11-22T03:15:25;6.40;;;1.15;;
42192;SDS011;52467;40.114;18.306;2022-11-22T03:17:57;2.72;;;0.88;;
42192;SDS011;52467;40.114;18.306;2022-11-22T03:20:25;8.50;;;1.35;;
42192;SDS011;52467;40.114;18.306;2022-11-22T03:22:53;6.43;;;1.23;;
42192;SDS011;52467;40.114;18.306;2022-11-22T03:25:21;7.78;;;1.77;;
42192;SDS011;52467;40.114;18.306;2022-11-22T03:27:48;6.53;;;1.33;;
42192;SDS011;52467;40.114;18.306;2022-11-22T03:30:15;5.80;;;1.10;;
42192;SDS011;52467;40.114;18.306;2022-11-22T03:32:43;4.97;;;1.10;;
42192;SDS011;52467;40.114;18.306;2022-11-22T03:35:10;8.43;;;0.95;;
42192;SDS011;52467;40.114;18.306;2022-11-22T03:37:37;6.27;;;1.17;;
42192;SDS011;52467;40.114;18.306;2022-11-22T03:40:05;4.07;;;1.40;;
42192;SDS011;52467;40.114;18.306;2022-11-22T03:42:36;8.73;;;1.40;;
42192;SDS011;52467;40.114;18.306;2022-11-22T03:45:03;5.18;;;1.55;;
42192;SDS011;52467;40.114;18.306;2022-11-22T03:47:31;7.13;;;1.00;;
42192;SDS011;52467;40.114;18.306;2022-11-22T03:49:58;12.75;;;1.60;;
42192;SDS011;52467;40.114;18.306;2022-11-22T03:52:26;3.85;;;1.10;;
42192;SDS011;52467;40.114;18.306;2022-11-22T03:54:55;9.23;;;1.83;;
42192;SDS011;52467;40.114;18.306;2022-11-22T03:57:22;6.00;;;1.40;;
42192;SDS011;52467;40.114;18.306;2022-11-22T03:59:52;4.95;;;1.05;;
42192;SDS011;52467;40.114;18.306;2022-11-22T04:02:19;5.65;;;1.20;;
42192;SDS011;52467;40.114;18.306;2022-11-22T04:04:46;7.57;;;1.70;;
42192;SDS011;52467;40.114;18.306;2022-11-22T04:07:13;8.25;;;1.45;;
42192;SDS011;52467;40.114;18.306;2022-11-22T04:09:40;6.67;;;1.20;;
42192;SDS011;52467;40.114;18.306;2022-11-22T04:12:08;6.10;;;1.38;;
42192;SDS011;52467;40.114;18.306;2022-11-22T04:14:35;5.60;;;1.52;;
42192;SDS011;52467;40.114;18.306;2022-11-22T04:17:27;7.85;;;1.30;;
42192;SDS011;52467;40.114;18.306;2022-11-22T04:20:15;4.20;;;1.02;;
42192;SDS011;52467;40.114;18.306;2022-11-22T04:23:10;4.20;;;1.10;;
42192;SDS011;52467;40.114;18.306;2022-11-22T04:25:46;8.20;;;1.40;;
42192;SDS011;52467;40.114;18.306;2022-11-22T04:28:16;10.70;;;1.60;;
42192;SDS011;52467;40.114;18.306;2022-11-22T04:30:45;5.35;;;1.10;;
42192;SDS011;52467;40.114;18.306;2022-11-22T04:33:31;7.50;;;1.63;;
42192;SDS011;52467;40.114;18.306;2022-11-22T04:35:58;10.15;;;1.48;;
42192;SDS011;52467;40.114;18.306;2022-11-22T04:38:25;6.22;;;1.10;;
42192;SDS011;52467;40.114;18.306;2022-11-22T04:40:53;5.97;;;1.40;;
42192;SDS011;52467;40.114;18.306;2022-11-22T04:46:10;5.53;;;1.60;;
42192;SDS011;52467;40.114;18.306;2022-11-22T04:48:38;14.60;;;1.95;;
42192;SDS011;52467;40.114;18.306;2022-11-22T04:51:06;7.72;;;1.40;;
42192;SDS011;52467;40.114;18.306;2022-11-22T04:53:52;11.27;;;1.35;;
42192;SDS011;52467;40.114;18.306;2022-11-22T04:56:19;7.88;;;1.30;;
42192;SDS011;52467;40.114;18.306;2022-11-22T04:58:47;8.93;;;1.50;;
42192;SDS011;52467;40.114;18.306;2022-11-22T05:01:17;3.53;;;1.30;;
42192;SDS011;52467;40.114;18.306;2022-11-22T05:03:44;11.45;;;1.73;;
42192;SDS011;52467;40.114;18.306;2022-11-22T05:06:11;7.18;;;1.42;;
42192;SDS011;52467;40.114;18.306;2022-11-22T05:08:40;8.25;;;1.50;;
42192;SDS011;52467;40.114;18.306;2022-11-22T05:11:07;7.78;;;1.52;;
42192;SDS011;52467;40.114;18.306;2022-11-22T05:13:35;7.78;;;1.77;;
42192;SDS011;52467;40.114;18.306;2022-11-22T05:16:05;7.40;;;1.15;;
42192;SDS011;52467;40.114;18.306;2022-11-22T05:18:33;10.02;;;1.60;;
42192;SDS011;52467;40.114;18.306;2022-11-22T05:21:08;10.75;;;1.63;;
42192;SDS011;52467;40.114;18.306;2022-11-22T05:23:37;9.40;;;1.42;;
42192;SDS011;52467;40.114;18.306;2022-11-22T05:28:50;10.77;;;1.80;;
42192;SDS011;52467;40.114;18.306;2022-11-22T05:31:18;9.32;;;1.70;;
42192;SDS011;52467;40.114;18.306;2022-11-22T05:33:50;11.13;;;2.10;;
42192;SDS011;52467;40.114;18.306;2022-11-22T05:36:18;12.38;;;1.88;;
42192;SDS011;52467;40.114;18.306;2022-11-22T05:38:46;14.73;;;2.00;;
42192;SDS011;52467;40.114;18.306;2022-11-22T05:41:14;9.82;;;2.20;;
42192;SDS011;52467;40.114;18.306;2022-11-22T05:43:42;13.20;;;2.00;;
42192;SDS011;52467;40.114;18.306;2022-11-22T05:46:11;12.35;;;1.90;;
42192;SDS011;52467;40.114;18.306;2022-11-22T05:48:40;10.25;;;2.00;;
42192;SDS011;52467;40.114;18.306;2022-11-22T05:51:10;12.57;;;1.70;;
42192;SDS011;52467;40.114;18.306;2022-11-22T05:53:39;14.13;;;1.90;;
42192;SDS011;52467;40.114;18.306;2022-11-22T05:56:07;12.20;;;2.58;;
42192;SDS011;52467;40.114;18.306;2022-11-22T05:58:45;15.57;;;2.20;;
42192;SDS011;52467;40.114;18.306;2022-11-22T06:01:13;14.10;;;3.58;;
42192;SDS011;52467;40.114;18.306;2022-11-22T06:03:42;28.50;;;7.00;;
42192;SDS011;52467;40.114;18.306;2022-11-22T06:06:10;27.50;;;8.05;;
42192;SDS011;52467;40.114;18.306;2022-11-22T06:08:38;31.40;;;7.38;;
42192;SDS011;52467;40.114;18.306;2022-11-22T06:11:13;20.40;;;3.95;;
42192;SDS011;52467;40.114;18.306;2022-11-22T06:13:45;18.60;;;3.63;;
42192;SDS011;52467;40.114;18.306;2022-11-22T06:16:14;12.93;;;2.65;;
42192;SDS011;52467;40.114;18.306;2022-11-22T06:18:42;14.87;;;3.00;;
42192;SDS011;52467;40.114;18.306;2022-11-22T06:21:10;17.77;;;2.80;;
42192;SDS011;52467;40.114;18.306;2022-11-22T06:23:39;14.85;;;2.40;;
42192;SDS011;52467;40.114;18.306;2022-11-22T06:26:08;16.60;;;2.35;;
42192;SDS011;52467;40.114;18.306;2022-11-22T06:28:39;16.93;;;2.53;;
42192;SDS011;52467;40.114;18.306;2022-11-22T06:31:14;13.02;;;2.58;;
42192;SDS011;52467;40.114;18.306;2022-11-22T06:33:46;13.88;;;2.30;;
42192;SDS011;52467;40.114;18.306;2022-11-22T06:36:20;23.02;;;5.68;;
42192;SDS011;52467;40.114;18.306;2022-11-22T06:38:52;29.42;;;9.30;;
42192;SDS011;52467;40.114;18.306;2022-11-22T06:41:20;24.55;;;8.52;;
42192;SDS011;52467;40.114;18.306;2022-11-22T06:43:52;21.08;;;6.13;;
42192;SDS011;52467;40.114;18.306;2022-11-22T06:46:22;24.17;;;7.73;;
42192;SDS011;52467;40.114;18.306;2022-11-22T06:48:51;22.47;;;5.97;;
42192;SDS011;52467;40.114;18.306;2022-11-22T06:51:20;16.33;;;4.07;;
42192;SDS011;52467;40.114;18.306;2022-11-22T06:53:51;17.48;;;2.35;;
42192;SDS011;52467;40.114;18.306;2022-11-22T06:56:25;12.80;;;1.80;;
42192;SDS011;52467;40.114;18.306;2022-11-22T06:58:56;15.30;;;2.17;;
42192;SDS011;52467;40.114;18.306;2022-11-22T07:01:27;14.18;;;2.28;;
42192;SDS011;52467;40.114;18.306;2022-11-22T07:03:55;13.15;;;2.38;;
42192;SDS011;52467;40.114;18.306;2022-11-22T07:06:24;15.18;;;3.15;;
42192;SDS011;52467;40.114;18.306;2022-11-22T07:08:57;18.30;;;3.70;;
42192;SDS011;52467;40.114;18.306;2022-11-22T07:11:26;16.10;;;3.90;;
42192;SDS011;52467;40.114;18.306;2022-11-22T07:13:55;13.50;;;3.72;;
42192;SDS011;52467;40.114;18.306;2022-11-22T07:16:27;18.58;;;4.72;;
42192;SDS011;52467;40.114;18.306;2022-11-22T07:18:54;13.50;;;2.88;;
42192;SDS011;52467;40.114;18.306;2022-11-22T07:21:25;19.65;;;2.63;;
42192;SDS011;52467;40.114;18.306;2022-11-22T07:23:53;18.08;;;2.45;;
42192;SDS011;52467;40.114;18.306;2022-11-22T07:26:22;14.57;;;2.80;;
42192;SDS011;52467;40.114;18.306;2022-11-22T07:28:50;12.70;;;2.30;;
42192;SDS011;52467;40.114;18.306;2022-11-22T07:31:18;9.20;;;1.80;;
42192;SDS011;52467;40.114;18.306;2022-11-22T07:33:45;14.68;;;1.98;;
42192;SDS011;52467;40.114;18.306;2022-11-22T07:36:14;12.43;;;2.30;;
42192;SDS011;52467;40.114;18.306;2022-11-22T07:38:43;13.20;;;1.98;;
42192;SDS011;52467;40.114;18.306;2022-11-22T07:41:11;15.05;;;2.33;;
42192;SDS011;52467;40.114;18.306;2022-11-22T07:43:39;17.48;;;2.38;;
42192;SDS011;52467;40.114;18.306;2022-11-22T07:46:17;12.70;;;1.90;;
42192;SDS011;52467;40.114;18.306;2022-11-22T07:48:48;15.80;;;2.67;;
42192;SDS011;52467;40.114;18.306;2022-11-22T07:51:15;16.35;;;2.78;;
42192;SDS011;52467;40.114;18.306;2022-11-22T07:53:43;10.02;;;1.85;;
42192;SDS011;52467;40.114;18.306;2022-11-22T07:56:10;9.23;;;2.05;;
42192;SDS011;52467;40.114;18.306;2022-11-22T07:58:38;16.83;;;2.83;;
42192;SDS011;52467;40.114;18.306;2022-11-22T08:01:06;15.80;;;2.45;;
42192;SDS011;52467;40.114;18.306;2022-11-22T08:03:35;20.48;;;3.30;;
42192;SDS011;52467;40.114;18.306;2022-11-22T08:06:04;17.33;;;2.58;;
42192;SDS011;52467;40.114;18.306;2022-11-22T08:08:32;17.20;;;2.20;;
42192;SDS011;52467;40.114;18.306;2022-11-22T08:11:00;13.15;;;2.10;;
42192;SDS011;52467;40.114;18.306;2022-11-22T08:13:28;15.25;;;2.03;;
42192;SDS011;52467;40.114;18.306;2022-11-22T08:15:59;13.20;;;1.97;;
42192;SDS011;52467;40.114;18.306;2022-11-22T08:18:30;13.32;;;1.73;;
42192;SDS011;52467;40.114;18.306;2022-11-22T08:21:05;12.07;;;2.00;;
42192;SDS011;52467;40.114;18.306;2022-11-22T08:23:34;8.75;;;1.73;;
42192;SDS011;52467;40.114;18.306;2022-11-22T08:26:02;6.53;;;1.73;;
42192;SDS011;52467;40.114;18.306;2022-11-22T08:28:30;9.98;;;1.50;;
42192;SDS011;52467;40.114;18.306;2022-11-22T08:30:58;11.85;;;2.45;;
42192;SDS011;52467;40.114;18.306;2022-11-22T08:33:29;10.63;;;1.90;;
42192;SDS011;52467;40.114;18.306;2022-11-22T08:35:57;11.15;;;1.67;;
42192;SDS011;52467;40.114;18.306;2022-11-22T08:38:24;4.95;;;1.58;;
42192;SDS011;52467;40.114;18.306;2022-11-22T08:40:52;8.20;;;1.50;;
42192;SDS011;52467;40.114;18.306;2022-11-22T08:43:19;9.32;;;1.90;;
42192;SDS011;52467;40.114;18.306;2022-11-22T08:45:47;14.15;;;3.78;;
42192;SDS011;52467;40.114;18.306;2022-11-22T08:48:17;15.93;;;3.00;;
42192;SDS011;52467;40.114;18.306;2022-11-22T08:50:57;8.82;;;1.80;;
42192;SDS011;52467;40.114;18.306;2022-11-22T08:53:26;9.20;;;1.70;;
42192;SDS011;52467;40.114;18.306;2022-11-22T08:55:55;12.43;;;2.20;;
42192;SDS011;52467;40.114;18.306;2022-11-22T08:58:25;12.30;;;2.42;;
42192;SDS011;52467;40.114;18.306;2022-11-22T09:00:52;15.88;;;2.00;;
42192;SDS011;52467;40.114;18.306;2022-11-22T09:03:20;10.20;;;2.00;;
42192;SDS011;52467;40.114;18.306;2022-11-22T09:05:47;8.20;;;2.15;;
42192;SDS011;52467;40.114;18.306;2022-11-22T09:08:35;8.10;;;1.58;;
42192;SDS011;52467;40.114;18.306;2022-11-22T09:11:05;7.72;;;1.92;;
42192;SDS011;52467;40.114;18.306;2022-11-22T09:13:34;12.57;;;2.58;;
42192;SDS011;52467;40.114;18.306;2022-11-22T09:16:02;8.15;;;1.88;;
42192;SDS011;52467;40.114;18.306;2022-11-22T09:18:30;13.40;;;2.73;;
42192;SDS011;52467;40.114;18.306;2022-11-22T09:20:58;17.85;;;1.65;;
42192;SDS011;52467;40.114;18.306;2022-11-22T09:23:27;12.02;;;2.15;;
42192;SDS011;52467;40.114;18.306;2022-11-22T09:25:58;8.48;;;1.80;;
42192;SDS011;52467;40.114;18.306;2022-11-22T09:28:27;9.03;;;1.80;;
42192;SDS011;52467;40.114;18.306;2022-11-22T09:31:02;12.55;;;2.20;;
42192;SDS011;52467;40.114;18.306;2022-11-22T09:33:31;11.40;;;2.38;;
42192;SDS011;52467;40.114;18.306;2022-11-22T09:36:00;9.07;;;1.80;;
42192;SDS011;52467;40.114;18.306;2022-11-22T09:38:28;13.52;;;2.63;;
42192;SDS011;52467;40.114;18.306;2022-11-22T09:40:57;13.73;;;2.00;;
42192;SDS011;52467;40.114;18.306;2022-11-22T09:49:15;11.63;;;2.50;;
42192;SDS011;52467;40.114;18.306;2022-11-22T09:51:57;18.17;;;2.90;;
42192;SDS011;52467;40.114;18.306;2022-11-22T09:54:36;16.52;;;2.65;;
42192;SDS011;52467;40.114;18.306;2022-11-22T09:57:11;10.43;;;2.47;;
42192;SDS011;52467;40.114;18.306;2022-11-22T09:59:44;16.90;;;3.38;;
42192;SDS011;52467;40.114;18.306;2022-11-22T10:02:17;20.38;;;2.70;;
42192;SDS011;52467;40.114;18.306;2022-11-22T10:04:53;15.65;;;2.95;;
42192;SDS011;52467;40.114;18.306;2022-11-22T10:07:24;17.05;;;3.15;;
42192;SDS011;52467;40.114;18.306;2022-11-22T10:10:10;14.25;;;3.22;;
42192;SDS011;52467;40.114;18.306;2022-11-22T10:18:24;17.35;;;3.10;;
42192;SDS011;52467;40.114;18.306;2022-11-22T10:20:52;19.90;;;3.60;;
42192;SDS011;52467;40.114;18.306;2022-11-22T10:23:20;18.38;;;3.05;;
42192;SDS011;52467;40.114;18.306;2022-11-22T10:26:01;17.88;;;2.90;;
42192;SDS011;52467;40.114;18.306;2022-11-22T10:31:25;16.40;;;2.40;;
42192;SDS011;52467;40.114;18.306;2022-11-22T10:34:13;14.50;;;2.50;;
42192;SDS011;52467;40.114;18.306;2022-11-22T10:39:54;18.63;;;3.10;;
42192;SDS011;52467;40.114;18.306;2022-11-22T10:45:48;19.52;;;2.78;;
42192;SDS011;52467;40.114;18.306;2022-11-22T10:48:34;17.13;;;3.33;;
42192;SDS011;52467;40.114;18.306;2022-11-22T10:51:30;25.57;;;3.33;;
42192;SDS011;52467;40.114;18.306;2022-11-22T10:59:48;13.73;;;2.83;;
42192;SDS011;52467;40.114;18.306;2022-11-22T11:05:50;19.73;;;3.10;;
42192;SDS011;52467;40.114;18.306;2022-11-22T11:11:43;23.95;;;3.55;;
42192;SDS011;52467;40.114;18.306;2022-11-22T11:16:50;20.20;;;4.20;;
42192;SDS011;52467;40.114;18.306;2022-11-22T11:19:20;21.40;;;3.83;;
42192;SDS011;52467;40.114;18.306;2022-11-22T11:21:56;23.17;;;4.97;;
42192;SDS011;52467;40.114;18.306;2022-11-22T11:24:27;19.50;;;2.83;;
42192;SDS011;52467;40.114;18.306;2022-11-22T11:26:55;16.73;;;3.33;;
42192;SDS011;52467;40.114;18.306;2022-11-22T11:29:41;19.52;;;4.05;;
42192;SDS011;52467;40.114;18.306;2022-11-22T11:32:17;24.83;;;3.38;;
42192;SDS011;52467;40.114;18.306;2022-11-22T11:37:35;21.65;;;4.15;;
42192;SDS011;52467;40.114;18.306;2022-11-22T11:40:24;24.13;;;3.90;;
42192;SDS011;52467;40.114;18.306;2022-11-22T11:54:16;17.65;;;3.28;;
42192;SDS011;52467;40.114;18.306;2022-11-22T11:59:23;20.00;;;2.73;;
42192;SDS011;52467;40.114;18.306;2022-11-22T12:02:18;21.60;;;4.00;;
42192;SDS011;52467;40.114;18.306;2022-11-22T12:05:19;19.35;;;3.22;;
42192;SDS011;52467;40.114;18.306;2022-11-22T12:07:52;19.55;;;3.72;;
42192;SDS011;52467;40.114;18.306;2022-11-22T12:18:52;21.55;;;3.33;;
42192;SDS011;52467;40.114;18.306;2022-11-22T12:24:36;26.08;;;4.38;;
42192;SDS011;52467;40.114;18.306;2022-11-22T12:27:35;24.00;;;4.53;;
42192;SDS011;52467;40.114;18.306;2022-11-22T12:30:02;28.80;;;5.13;;
42192;SDS011;52467;40.114;18.306;2022-11-22T12:32:35;25.77;;;4.50;;
42192;SDS011;52467;40.114;18.306;2022-11-22T12:38:00;24.88;;;4.28;;
42192;SDS011;52467;40.114;18.306;2022-11-22T12:40:48;28.77;;;4.70;;
42192;SDS011;52467;40.114;18.306;2022-11-22T12:43:22;30.58;;;4.18;;
42192;SDS011;52467;40.114;18.306;2022-11-22T12:45:51;28.10;;;6.03;;
42192;SDS011;52467;40.114;18.306;2022-11-22T12:48:22;31.83;;;5.18;;
42192;SDS011;52467;40.114;18.306;2022-11-22T12:54:02;28.00;;;5.50;;
42192;SDS011;52467;40.114;18.306;2022-11-22T12:56:43;26.97;;;5.63;;
42192;SDS011;52467;40.114;18.306;2022-11-22T13:01:47;28.20;;;5.53;;
42192;SDS011;52467;40.114;18.306;2022-11-22T13:04:21;25.05;;;4.63;;
42192;SDS011;52467;40.114;18.306;2022-11-22T13:07:10;23.55;;;3.67;;
42192;SDS011;52467;40.114;18.306;2022-11-22T13:09:45;22.87;;;4.93;;
42192;SDS011;52467;40.114;18.306;2022-11-22T13:12:16;23.45;;;4.07;;
42192;SDS011;52467;40.114;18.306;2022-11-22T13:14:50;19.15;;;3.92;;
42192;SDS011;52467;40.114;18.306;2022-11-22T13:17:21;17.75;;;4.22;;
42192;SDS011;52467;40.114;18.306;2022-11-22T13:20:13;19.03;;;4.40;;
42192;SDS011;52467;40.114;18.306;2022-11-22T13:27:58;25.58;;;5.53;;
42192;SDS011;52467;40.114;18.306;2022-11-22T13:30:28;20.17;;;5.22;;
42192;SDS011;52467;40.114;18.306;2022-11-22T13:32:57;21.90;;;3.97;;
42192;SDS011;52467;40.114;18.306;2022-11-22T13:35:35;23.17;;;4.72;;
42192;SDS011;52467;40.114;18.306;2022-11-22T13:38:05;25.08;;;4.30;;
42192;SDS011;52467;40.114;18.306;2022-11-22T13:40:56;21.00;;;4.63;;
42192;SDS011;52467;40.114;18.306;2022-11-22T13:43:53;26.08;;;5.03;;
42192;SDS011;52467;40.114;18.306;2022-11-22T13:52:03;19.03;;;4.07;;
42192;SDS011;52467;40.114;18.306;2022-11-22T14:05:18;31.07;;;5.70;;
42192;SDS011;52467;40.114;18.306;2022-11-22T14:08:25;7.25;;;2.28;;
42192;SDS011;52467;40.114;18.306;2022-11-22T14:19:26;7.38;;;1.30;;
42192;SDS011;52467;40.114;18.306;2022-11-22T14:27:53;8.07;;;1.60;;
42192;SDS011;52467;40.114;18.306;2022-11-22T14:33:24;5.77;;;1.67;;
42192;SDS011;52467;40.114;18.306;2022-11-22T14:38:32;8.88;;;2.10;;
42192;SDS011;52467;40.114;18.306;2022-11-22T14:44:03;6.72;;;2.60;;
42192;SDS011;52467;40.114;18.306;2022-11-22T14:46:35;5.65;;;1.92;;
42192;SDS011;52467;40.114;18.306;2022-11-22T14:52:15;9.48;;;3.05;;
42192;SDS011;52467;40.114;18.306;2022-11-22T14:54:52;8.45;;;2.80;;
42192;SDS011;52467;40.114;18.306;2022-11-22T14:57:24;6.93;;;2.17;;
42192;SDS011;52467;40.114;18.306;2022-11-22T15:00:01;9.95;;;2.25;;
42192;SDS011;52467;40.114;18.306;2022-11-22T15:17:14;7.63;;;2.17;;
42192;SDS011;52467;40.114;18.306;2022-11-22T15:19:43;10.05;;;2.25;;
42192;SDS011;52467;40.114;18.306;2022-11-22T15:22:30;11.70;;;3.17;;
42192;SDS011;52467;40.114;18.306;2022-11-22T15:25:18;8.57;;;3.08;;
42192;SDS011;52467;40.114;18.306;2022-11-22T15:28:09;8.98;;;2.80;;
42192;SDS011;52467;40.114;18.306;2022-11-22T15:31:07;16.45;;;3.10;;
42192;SDS011;52467;40.114;18.306;2022-11-22T15:33:57;7.90;;;3.03;;
42192;SDS011;52467;40.114;18.306;2022-11-22T15:37:00;14.48;;;2.67;;
42192;SDS011;52467;40.114;18.306;2022-11-22T15:39:53;9.65;;;3.00;;
42192;SDS011;52467;40.114;18.306;2022-11-22T15:43:02;9.67;;;2.60;;
42192;SDS011;52467;40.114;18.306;2022-11-22T15:45:49;7.50;;;2.25;;
42192;SDS011;52467;40.114;18.306;2022-11-22T15:48:39;9.25;;;2.40;;
42192;SDS011;52467;40.114;18.306;2022-11-22T15:51:30;9.55;;;1.73;;
42192;SDS011;52467;40.114;18.306;2022-11-22T15:54:21;7.03;;;1.75;;
42192;SDS011;52467;40.114;18.306;2022-11-22T15:57:20;6.20;;;2.13;;
42192;SDS011;52467;40.114;18.306;2022-11-22T15:59:52;8.95;;;1.55;;
42192;SDS011;52467;40.114;18.306;2022-11-22T16:02:20;10.03;;;2.50;;
42192;SDS011;52467;40.114;18.306;2022-11-22T16:04:51;8.40;;;1.02;;
42192;SDS011;52467;40.114;18.306;2022-11-22T16:07:54;2.88;;;1.38;;
42192;SDS011;52467;40.114;18.306;2022-11-22T16:10:33;6.17;;;2.00;;
42192;SDS011;52467;40.114;18.306;2022-11-22T16:13:12;5.97;;;1.38;;
42192;SDS011;52467;40.114;18.306;2022-11-22T16:18:40;3.85;;;1.45;;
42192;SDS011;52467;40.114;18.306;2022-11-22T16:23:38;5.80;;;1.42;;
42192;SDS011;52467;40.114;18.306;2022-11-22T16:26:23;6.10;;;1.20;;
42192;SDS011;52467;40.114;18.306;2022-11-22T16:28:55;7.13;;;1.40;;
42192;SDS011;52467;40.114;18.306;2022-11-22T16:31:37;4.47;;;1.85;;
42192;SDS011;52467;40.114;18.306;2022-11-22T16:34:10;11.20;;;1.93;;
42192;SDS011;52467;40.114;18.306;2022-11-22T16:36:39;9.47;;;2.30;;
42192;SDS011;52467;40.114;18.306;2022-11-22T16:39:06;7.90;;;1.85;;
42192;SDS011;52467;40.114;18.306;2022-11-22T16:41:34;6.78;;;2.10;;
42192;SDS011;52467;40.114;18.306;2022-11-22T16:44:03;8.90;;;1.30;;
42192;SDS011;52467;40.114;18.306;2022-11-22T16:46:36;9.40;;;1.83;;
42192;SDS011;52467;40.114;18.306;2022-11-22T16:49:10;6.93;;;2.17;;
42192;SDS011;52467;40.114;18.306;2022-11-22T16:51:43;6.93;;;1.98;;
42192;SDS011;52467;40.114;18.306;2022-11-22T16:54:13;7.57;;;1.65;;
42192;SDS011;52467;40.114;18.306;2022-11-22T16:56:50;9.50;;;1.87;;
42192;SDS011;52467;40.114;18.306;2022-11-22T16:59:18;7.80;;;1.77;;
42192;SDS011;52467;40.114;18.306;2022-11-22T17:01:45;3.45;;;1.30;;
42192;SDS011;52467;40.114;18.306;2022-11-22T17:04:22;6.47;;;2.00;;
42192;SDS011;52467;40.114;18.306;2022-11-22T17:06:51;9.55;;;2.33;;
42192;SDS011;52467;40.114;18.306;2022-11-22T17:09:19;5.88;;;1.90;;
42192;SDS011;52467;40.114;18.306;2022-11-22T17:11:47;4.40;;;1.83;;
42192;SDS011;52467;40.114;18.306;2022-11-22T17:14:15;6.63;;;2.10;;
42192;SDS011;52467;40.114;18.306;2022-11-22T17:16:43;4.97;;;1.90;;
42192;SDS011;52467;40.114;18.306;2022-11-22T17:19:11;8.18;;;2.10;;
42192;SDS011;52467;40.114;18.306;2022-11-22T17:21:50;5.50;;;1.58;;
42192;SDS011;52467;40.114;18.306;2022-11-22T17:24:18;4.13;;;0.90;;
42192;SDS011;52467;40.114;18.306;2022-11-22T17:26:47;3.65;;;0.93;;
42192;SDS011;52467;40.114;18.306;2022-11-22T17:29:14;4.43;;;1.45;;